Time;durP1;ratioP1;P1;durP2;ratioP2;P2;SDS_P1;SDS_P2;PMS_P1;PMS_P2;Temp;Humidity;BMP_temperature;BMP_pressure;BME280_temperature;BME280_humidity;BME280_pressure;Samples;Min_cycle;Max_cycle;Signal;HPM_P1;HPM_P2
2023/11/01 00:01:50;;;;;;;;;;;;;;;;;;5072620;28;19955;-72
2023/11/01 00:04:17;;;;;;;;;;;;;;;;;;5072118;28;19928;-72
2023/11/01 00:06:44;;;;;;;;;;;;;;;;;;5070159;28;19962;-72
2023/11/01 00:09:11;;;;;;;;;;;;;;;;;;5062433;28;20012;-72
2023/11/01 00:11:38;;;;;;;;;;;;;;;;;;5061542;28;19986;-71
2023/11/01 00:14:05;;;;;;;;;;;;;;;;;;5072410;28;19930;-73
2023/11/01 00:16:32;;;;;;;;;;;;;;;;;;5074363;28;19925;-72
2023/11/01 00:18:59;;;;;;;;;;;;;;;;;;5073387;28;19925;-72
2023/11/01 00:21:26;;;;;;;;;;;;;;;;;;5070796;28;19932;-73
2023/11/01 00:23:53;;;;;;;;;;;;;;;;;;5071722;28;19924;-72
2023/11/01 00:26:20;;;;;;;;;;;;;;;;;;5071721;28;19924;-72
2023/11/01 00:28:47;;;;;;;;;;;;;;;;;;5071604;28;20008;-71
2023/11/01 00:31:14;;;;;;;;;;;;;;;;;;5072096;28;20023;-72
2023/11/01 00:33:41;;;;;;;;;;;;;;;;;;5062043;28;20302;-72
2023/11/01 00:36:08;;;;;;;;;;;;;;;;;;5068498;28;19959;-72
2023/11/01 00:38:35;;;;;;;;;;;;;;;;;;5068848;28;20394;-71
2023/11/01 00:41:02;;;;;;;;;;;;;;;;;;5067953;28;19929;-71
2023/11/01 00:43:30;;;;;;;;;;;;;;;;;;5068256;28;21682;-71
2023/11/01 00:45:57;;;;;;;;;;;;;;;;;;5072479;28;19924;-72
2023/11/01 00:48:24;;;;;;;;;;;;;;;;;;5065561;28;20027;-71
2023/11/01 00:50:51;;;;;;;;;;;;;;;;;;5072037;28;19929;-71
2023/11/01 00:53:18;;;;;;;;;;;;;;;;;;5064141;28;19928;-71
2023/11/01 00:55:45;;;;;;;;;;;;;;;;;;5054997;28;19925;-72
2023/11/01 00:58:12;;;;;;;;;;;;;;;;;;5056996;28;19960;-71
2023/11/01 01:00:39;;;;;;;;;;;;;;;;;;5068553;28;19924;-72
2023/11/01 01:03:06;;;;;;;;;;;;;;;;;;5073494;28;19924;-72
2023/11/01 01:05:33;;;;;;;;;;;;;;;;;;5066383;28;19924;-72
2023/11/01 01:08:00;;;;;;;;;;;;;;;;;;5066948;28;19924;-72
2023/11/01 01:10:28;;;;;;;;;;;;;;;;;;5072652;28;19935;-72
2023/11/01 01:12:55;;;;;;;;;;;;;;;;;;5073282;28;19929;-72
2023/11/01 01:15:22;;;;;;;;;;;;;;;;;;5067021;28;20440;-71
2023/11/01 01:17:49;;;;;;;;;;;;;;;;;;5052401;28;19951;-72
2023/11/01 01:20:16;;;;;;;;;;;;;;;;;;5066443;28;20382;-71
2023/11/01 01:22:45;;;;;;;;;;;;;;;;;;5062473;28;20012;-71
2023/11/01 01:25:12;;;;;;;;;;;;;;;;;;5055386;28;20407;-72
2023/11/01 01:27:41;;;;;;;;;;;;;;;;;;5072497;28;19924;-72
2023/11/01 01:30:08;;;;;;;;;;;;;;;;;;5071242;28;19924;-71
2023/11/01 01:32:35;;;;;;;;;;;;;;;;;;5072810;28;20031;-71
2023/11/01 01:35:02;;;;;;;;;;;;;;;;;;5072017;28;20011;-72
2023/11/01 01:37:29;;;;;;;;;;;;;;;;;;5068137;28;19924;-71
2023/11/01 01:39:56;;;;;;;;;;;;;;;;;;5055049;28;19925;-71
2023/11/01 01:42:23;;;;;;;;;;;;;;;;;;5052629;28;19925;-71
2023/11/01 01:44:50;;;;;;;;;;;;;;;;;;5067809;28;20025;-71
2023/11/01 01:47:17;;;;;;;;;;;;;;;;;;5058519;28;19932;-71
2023/11/01 01:49:45;;;;;;;;;;;;;;;;;;5052689;28;20451;-71
2023/11/01 01:52:12;;;;;;;;;;;;;;;;;;5060081;28;19978;-71
2023/11/01 01:54:39;;;;;;;;;;;;;;;;;;5071764;28;19931;-71
2023/11/01 01:57:06;;;;;;;;;;;;;;;;;;5068808;28;19994;-71
2023/11/01 01:59:33;;;;;;;;;;;;;;;;;;5066714;28;20057;-71
2023/11/01 02:02:00;;;;;;;;;;;;;;;;;;5057109;28;19968;-71
2023/11/01 02:04:27;;;;;;;;;;;;;;;;;;5062904;28;19924;-71
2023/11/01 02:06:54;;;;;;;;;;;;;;;;;;5069625;28;19924;-71
2023/11/01 02:09:21;;;;;;;;;;;;;;;;;;5053729;28;19925;-71
2023/11/01 02:11:48;;;;;;;;;;;;;;;;;;5052104;28;20015;-71
2023/11/01 02:14:15;;;;;;;;;;;;;;;;;;5066602;28;20362;-71
2023/11/01 02:16:42;;;;;;;;;;;;;;;;;;5069062;28;19924;-72
2023/11/01 02:19:09;;;;;;;;;;;;;;;;;;5070290;28;19975;-70
2023/11/01 02:21:37;;;;;;;;;;;;;;;;;;5071389;28;19951;-71
2023/11/01 02:24:04;;;;;;;;;;;;;;;;;;5072679;28;20007;-71
2023/11/01 02:26:31;;;;;;;;;;;;;;;;;;5071892;28;20023;-71
2023/11/01 02:28:58;;;;;;;;;;;;;;;;;;5063163;28;19928;-70
2023/11/01 02:31:25;;;;;;;;;;;;;;;;;;5070462;28;20007;-71
2023/11/01 02:33:52;;;;;;;;;;;;;;;;;;5070567;28;20429;-71
2023/11/01 02:36:19;;;;;;;;;;;;;;;;;;5071071;28;19970;-71
2023/11/01 02:38:46;;;;;;;;;;;;;;;;;;5071147;28;19978;-72
2023/11/01 02:41:13;;;;;;;;;;;;;;;;;;5072028;28;19960;-72
2023/11/01 02:43:40;;;;;;;;;;;;;;;;;;5071423;28;20408;-71
2023/11/01 02:46:07;;;;;;;;;;;;;;;;;;5071943;28;19950;-72
2023/11/01 02:48:35;;;;;;;;;;;;;;;;;;5060811;28;20435;-71
2023/11/01 02:51:02;;;;;;;;;;;;;;;;;;5072175;28;19963;-71
2023/11/01 02:53:29;;;;;;;;;;;;;;;;;;5068033;28;19925;-71
2023/11/01 02:55:55;;;;;;;;;;;;;;;;;;5070602;28;20028;-70
2023/11/01 02:58:23;;;;;;;;;;;;;;;;;;5064270;28;19943;-71
2023/11/01 03:00:50;;;;;;;;;;;;;;;;;;5051369;28;19948;-70
2023/11/01 03:03:17;;;;;;;;;;;;;;;;;;5069438;28;20294;-71
2023/11/01 03:05:44;;;;;;;;;;;;;;;;;;5071941;28;19925;-71
2023/11/01 03:08:11;;;;;;;;;;;;;;;;;;5065526;28;19952;-70
2023/11/01 03:10:38;;;;;;;;;;;;;;;;;;5071837;28;20023;-71
2023/11/01 03:13:05;;;;;;;;;;;;;;;;;;5071688;28;20039;-71
2023/11/01 03:15:32;;;;;;;;;;;;;;;;;;5071863;28;19932;-71
2023/11/01 03:17:59;;;;;;;;;;;;;;;;;;5070882;28;20024;-71
2023/11/01 03:20:27;;;;;;;;;;;;;;;;;;5070818;28;20030;-71
2023/11/01 03:22:54;;;;;;;;;;;;;;;;;;5074465;28;20007;-70
2023/11/01 03:25:21;;;;;;;;;;;;;;;;;;5074326;28;19931;-70
2023/11/01 03:27:48;;;;;;;;;;;;;;;;;;5072514;28;20141;-70
2023/11/01 03:30:15;;;;;;;;;;;;;;;;;;5070518;28;19974;-71
2023/11/01 03:32:42;;;;;;;;;;;;;;;;;;5075296;28;19932;-71
2023/11/01 03:35:10;;;;;;;;;;;;;;;;;;5074720;28;19925;-71
2023/11/01 03:37:37;;;;;;;;;;;;;;;;;;5074528;28;19928;-70
2023/11/01 03:40:04;;;;;;;;;;;;;;;;;;5057686;28;19983;-71
2023/11/01 03:42:31;;;;;;;;;;;;;;;;;;5067633;28;19947;-71
2023/11/01 03:44:58;;;;;;;;;;;;;;;;;;5074946;28;19928;-72
2023/11/01 03:47:25;;;;;;;;;;;;;;;;;;5074964;28;20019;-71
2023/11/01 03:49:52;;;;;;;;;;;;;;;;;;5061322;28;20035;-71
2023/11/01 03:52:20;;;;;;;;;;;;;;;;;;5070890;28;19960;-71
2023/11/01 03:54:47;;;;;;;;;;;;;;;;;;5073842;28;19932;-71
2023/11/01 03:57:14;;;;;;;;;;;;;;;;;;5074579;28;19946;-71
2023/11/01 03:59:42;;;;;;;;;;;;;;;;;;5072021;28;19970;-71
2023/11/01 04:02:09;;;;;;;;;;;;;;;;;;5073588;28;19933;-71
2023/11/01 04:04:37;;;;;;;;;;;;;;;;;;5073920;28;20402;-70
2023/11/01 04:07:04;;;;;;;;;;;;;;;;;;5059078;28;19925;-71
2023/11/01 04:09:31;;;;;;;;;;;;;;;;;;5066869;28;20367;-71
2023/11/01 04:11:58;;;;;;;;;;;;;;;;;;5069445;28;19940;-71
2023/11/01 04:14:25;;;;;;;;;;;;;;;;;;5061808;28;20346;-71
2023/11/01 04:16:52;;;;;;;;;;;;;;;;;;5070528;28;19975;-71
2023/11/01 04:19:19;;;;;;;;;;;;;;;;;;5059606;28;20391;-71
2023/11/01 04:21:46;;;;;;;;;;;;;;;;;;5072503;28;19924;-71
2023/11/01 04:24:13;;;;;;;;;;;;;;;;;;5073491;28;20019;-71
2023/11/01 04:26:40;;;;;;;;;;;;;;;;;;5072934;28;19963;-71
2023/11/01 04:29:07;;;;;;;;;;;;;;;;;;5060547;28;20007;-71
2023/11/01 04:31:34;;;;;;;;;;;;;;;;;;5063738;28;19925;-71
2023/11/01 04:34:02;;;;;;;;;;;;;;;;;;5064727;28;20395;-71
2023/11/01 04:36:29;;;;;;;;;;;;;;;;;;5066844;28;19935;-71
2023/11/01 04:38:57;;;;;;;;;;;;;;;;;;5072010;28;19971;-71
2023/11/01 04:41:26;;;;;;;;;;;;;;;;;;5064574;28;20023;-71
2023/11/01 04:43:53;;;;;;;;;;;;;;;;;;5072040;28;19929;-71
2023/11/01 04:46:20;;;;;;;;;;;;;;;;;;5063640;28;19924;-71
2023/11/01 04:48:47;;;;;;;;;;;;;;;;;;5062792;28;20474;-72
2023/11/01 04:51:14;;;;;;;;;;;;;;;;;;5068807;28;20019;-71
2023/11/01 04:53:41;;;;;;;;;;;;;;;;;;5071373;28;20432;-70
2023/11/01 04:56:08;;;;;;;;;;;;;;;;;;5072587;28;19956;-71
2023/11/01 04:58:36;;;;;;;;;;;;;;;;;;5064583;28;19970;-70
2023/11/01 05:01:05;;;;;;;;;;;;;;;;;;5070318;28;19932;-71
2023/11/01 05:03:34;;;;;;;;;;;;;;;;;;5063738;28;19925;-71
2023/11/01 05:06:01;;;;;;;;;;;;;;;;;;5084909;28;19931;-71
2023/11/01 05:08:28;;;;;;;;;;;;;;;;;;5078278;28;19938;-71
2023/11/01 05:10:55;;;;;;;;;;;;;;;;;;5054973;28;19925;-70
2023/11/01 05:13:22;;;;;;;;;;;;;;;;;;5058497;28;20021;-71
2023/11/01 05:15:49;;;;;;;;;;;;;;;;;;5072170;28;19978;-70
2023/11/01 05:18:16;;;;;;;;;;;;;;;;;;5072325;28;19987;-71
2023/11/01 05:20:43;;;;;;;;;;;;;;;;;;5071857;28;19939;-70
2023/11/01 05:23:10;;;;;;;;;;;;;;;;;;5057144;28;20302;-70
2023/11/01 05:25:37;;;;;;;;;;;;;;;;;;5072208;28;19971;-70
2023/11/01 05:28:04;;;;;;;;;;;;;;;;;;5072019;28;20383;-70
2023/11/01 05:30:31;;;;;;;;;;;;;;;;;;5070643;28;20344;-71
2023/11/01 05:32:58;;;;;;;;;;;;;;;;;;5065893;28;20027;-71
2023/11/01 05:35:25;;;;;;;;;;;;;;;;;;5070222;28;19975;-71
2023/11/01 05:37:52;;;;;;;;;;;;;;;;;;5070707;28;19924;-71
2023/11/01 05:40:19;;;;;;;;;;;;;;;;;;5065761;28;20015;-71
2023/11/01 05:42:46;;;;;;;;;;;;;;;;;;5064695;28;20387;-71
2023/11/01 05:45:15;;;;;;;;;;;;;;;;;;5062409;28;19925;-71
2023/11/01 05:47:42;;;;;;;;;;;;;;;;;;5065971;28;19924;-70
2023/11/01 05:50:12;;;;;;;;;;;;;;;;;;5072839;28;19928;-70
2023/11/01 05:52:40;;;;;;;;;;;;;;;;;;5055564;28;20020;-70
2023/11/01 05:55:08;;;;;;;;;;;;;;;;;;5052770;28;19928;-70
2023/11/01 05:57:36;;;;;;;;;;;;;;;;;;5071080;28;19924;-70
2023/11/01 06:00:05;;;;;;;;;;;;;;;;;;5070137;28;19932;-71
2023/11/01 06:02:32;;;;;;;;;;;;;;;;;;5068952;28;19925;-69
2023/11/01 06:05:00;;;;;;;;;;;;;;;;;;5071951;28;19928;-69
2023/11/01 06:07:27;;;;;;;;;;;;;;;;;;5058435;28;19968;-70
2023/11/01 06:09:53;;;;;;;;;;;;;;;;;;5056200;28;19928;-70
2023/11/01 06:12:20;;;;;;;;;;;;;;;;;;5069344;28;19971;-70
2023/11/01 06:14:47;;;;;;;;;;;;;;;;;;5066490;28;20290;-71
2023/11/01 06:17:14;;;;;;;;;;;;;;;;;;5066538;28;19965;-71
2023/11/01 06:19:41;;;;;;;;;;;;;;;;;;5064251;28;20299;-71
2023/11/01 06:22:10;;;;;;;;;;;;;;;;;;5068753;28;19925;-71
2023/11/01 06:24:37;;;;;;;;;;;;;;;;;;5063236;28;19925;-70
2023/11/01 06:27:04;;;;;;;;;;;;;;;;;;5065462;28;20343;-70
2023/11/01 06:29:31;;;;;;;;;;;;;;;;;;5071840;28;19924;-71
2023/11/01 06:31:58;;;;;;;;;;;;;;;;;;5056206;28;19979;-70
2023/11/01 06:34:25;;;;;;;;;;;;;;;;;;5057392;28;19925;-70
2023/11/01 06:36:53;;;;;;;;;;;;;;;;;;5055561;28;19926;-70
2023/11/01 06:39:19;;;;;;;;;;;;;;;;;;5058577;28;19932;-71
2023/11/01 06:41:46;;;;;;;;;;;;;;;;;;5071011;28;20015;-70
2023/11/01 06:44:14;;;;;;;;;;;;;;;;;;5069855;28;20007;-70
2023/11/01 06:46:41;;;;;;;;;;;;;;;;;;5071710;28;20003;-71
2023/11/01 06:49:08;;;;;;;;;;;;;;;;;;5071198;28;20030;-71
2023/11/01 06:51:35;;;;;;;;;;;;;;;;;;5073592;28;19925;-71
2023/11/01 06:54:02;;;;;;;;;;;;;;;;;;5068393;28;20115;-71
2023/11/01 06:56:30;;;;;;;;;;;;;;;;;;5064779;28;19929;-71
2023/11/01 06:58:57;;;;;;;;;;;;;;;;;;5066791;28;19966;-71
2023/11/01 07:01:24;;;;;;;;;;;;;;;;;;5067357;28;20328;-70
2023/11/01 07:03:51;;;;;;;;;;;;;;;;;;5070880;28;19978;-71
2023/11/01 07:06:18;;;;;;;;;;;;;;;;;;5070742;28;20376;-70
2023/11/01 07:08:46;;;;;;;;;;;;;;;;;;5057435;28;19925;-70
2023/11/01 07:11:13;;;;;;;;;;;;;;;;;;5069249;28;20322;-71
2023/11/01 07:13:40;;;;;;;;;;;;;;;;;;5062777;28;19924;-71
2023/11/01 07:16:08;;;;;;;;;;;;;;;;;;5065627;28;20418;-69
2023/11/01 07:18:35;;;;;;;;;;;;;;;;;;5068935;28;19932;-70
2023/11/01 07:21:02;;;;;;;;;;;;;;;;;;5069696;28;19967;-69
2023/11/01 07:23:29;;;;;;;;;;;;;;;;;;5066680;28;19995;-69
2023/11/01 07:25:56;;;;;;;;;;;;;;;;;;5068123;28;20335;-69
2023/11/01 07:28:23;;;;;;;;;;;;;;;;;;5068051;28;19935;-69
2023/11/01 07:30:50;;;;;;;;;;;;;;;;;;5063110;28;19925;-70
2023/11/01 07:33:17;;;;;;;;;;;;;;;;;;5073630;28;20382;-70
2023/11/01 07:35:44;;;;;;;;;;;;;;;;;;5059764;28;19971;-71
2023/11/01 07:38:11;;;;;;;;;;;;;;;;;;5057024;28;19928;-72
2023/11/01 07:40:38;;;;;;;;;;;;;;;;;;5060919;28;19928;-72
2023/11/01 07:43:04;;;;;;;;;;;;;;;;;;5073796;28;19924;-70
2023/11/01 07:45:34;;;;;;;;;;;;;;;;;;5071290;28;20379;-70
2023/11/01 07:48:01;;;;;;;;;;;;;;;;;;5065378;28;19932;-70
2023/11/01 07:50:28;;;;;;;;;;;;;;;;;;5059757;28;20279;-70
2023/11/01 07:52:55;;;;;;;;;;;;;;;;;;5071286;28;20015;-71
2023/11/01 07:55:22;;;;;;;;;;;;;;;;;;5070759;28;20307;-71
2023/11/01 07:57:49;;;;;;;;;;;;;;;;;;5067801;28;19975;-70
2023/11/01 08:00:16;;;;;;;;;;;;;;;;;;5059597;28;20007;-70
2023/11/01 08:02:43;;;;;;;;;;;;;;;;;;5059332;28;19933;-71
2023/11/01 08:05:10;;;;;;;;;;;;;;;;;;5071639;28;19936;-71
2023/11/01 08:07:37;;;;;;;;;;;;;;;;;;5070988;28;19968;-71
2023/11/01 08:10:04;;;;;;;;;;;;;;;;;;5069727;28;20366;-70
2023/11/01 08:12:31;;;;;;;;;;;;;;;;;;5062395;28;20015;-70
2023/11/01 08:14:58;;;;;;;;;;;;;;;;;;5065974;28;19975;-70
2023/11/01 08:17:25;;;;;;;;;;;;;;;;;;5067219;28;20092;-69
2023/11/01 08:19:52;;;;;;;;;;;;;;;;;;5066636;28;19970;-69
2023/11/01 08:22:19;;;;;;;;;;;;;;;;;;5066518;28;19925;-69
2023/11/01 08:24:46;;;;;;;;;;;;;;;;;;5066106;28;19978;-70
2023/11/01 08:27:13;;;;;;;;;;;;;;;;;;5064281;28;20295;-69
2023/11/01 08:29:42;;;;;;;;;;;;;;;;;;5061384;28;20007;-68
2023/11/01 08:32:09;;;;;;;;;;;;;;;;;;5069249;28;20019;-68
2023/11/01 08:34:36;;;;;;;;;;;;;;;;;;5065102;28;19995;-69
2023/11/01 08:37:03;;;;;;;;;;;;;;;;;;5060350;28;19978;-68
2023/11/01 08:39:30;;;;;;;;;;;;;;;;;;5060038;28;19924;-68
2023/11/01 08:41:58;;;;;;;;;;;;;;;;;;5058963;28;19968;-69
2023/11/01 08:44:25;;;;;;;;;;;;;;;;;;5059974;28;19936;-69
2023/11/01 08:46:53;;;;;;;;;;;;;;;;;;5062343;28;19932;-69
2023/11/01 08:49:20;;;;;;;;;;;;;;;;;;5066709;28;19932;-69
2023/11/01 08:51:47;;;;;;;;;;;;;;;;;;5067616;28;20276;-69
2023/11/01 08:54:16;;;;;;;;;;;;;;;;;;5061755;28;19924;-69
2023/11/01 08:56:43;;;;;;;;;;;;;;;;;;5070994;28;20302;-69
2023/11/01 08:59:10;;;;;;;;;;;;;;;;;;5058468;28;19931;-68
2023/11/01 09:01:37;;;;;;;;;;;;;;;;;;5070317;28;19924;-68
2023/11/01 09:04:04;;;;;;;;;;;;;;;;;;5071982;28;19931;-68
2023/11/01 09:06:32;;;;;;;;;;;;;;;;;;5068055;28;20019;-69
2023/11/01 09:09:00;;;;;;;;;;;;;;;;;;5067263;28;20008;-68
2023/11/01 09:11:27;;;;;;;;;;;;;;;;;;5070176;28;19932;-69
2023/11/01 09:13:55;;;;;;;;;;;;;;;;;;5062711;28;20019;-69
2023/11/01 09:16:22;;;;;;;;;;;;;;;;;;5057986;28;20019;-69
2023/11/01 09:18:48;;;;;;;;;;;;;;;;;;5061875;28;19925;-69
2023/11/01 09:21:15;;;;;;;;;;;;;;;;;;5062637;28;20375;-68
2023/11/01 09:23:42;;;;;;;;;;;;;;;;;;5067166;28;20031;-68
2023/11/01 09:26:14;;;;;;;;;;;;;;;;;;5059128;28;19972;-68
2023/11/01 09:28:41;;;;;;;;;;;;;;;;;;5066846;28;19971;-68
2023/11/01 09:31:08;;;;;;;;;;;;;;;;;;5069530;28;19924;-68
2023/11/01 09:33:35;;;;;;;;;;;;;;;;;;5063331;28;19967;-68
2023/11/01 09:36:02;;;;;;;;;;;;;;;;;;5061667;28;19935;-67
2023/11/01 09:38:29;;;;;;;;;;;;;;;;;;5061150;28;19983;-68
2023/11/01 09:40:56;;;;;;;;;;;;;;;;;;5067876;28;19931;-69
2023/11/01 09:43:23;;;;;;;;;;;;;;;;;;5072543;28;20019;-68
2023/11/01 09:45:50;;;;;;;;;;;;;;;;;;5059137;28;19928;-69
2023/11/01 09:48:17;;;;;;;;;;;;;;;;;;5057252;28;20375;-68
2023/11/01 09:50:44;;;;;;;;;;;;;;;;;;5058964;28;19928;-68
2023/11/01 09:53:11;;;;;;;;;;;;;;;;;;5060379;28;20076;-67
2023/11/01 09:55:38;;;;;;;;;;;;;;;;;;5066962;28;19924;-68
2023/11/01 09:58:05;;;;;;;;;;;;;;;;;;5067114;28;19974;-68
2023/11/01 10:00:32;;;;;;;;;;;;;;;;;;5071307;28;20411;-69
2023/11/01 10:03:00;;;;;;;;;;;;;;;;;;5080861;28;20023;-69
2023/11/01 10:05:27;;;;;;;;;;;;;;;;;;5071080;28;19931;-69
2023/11/01 10:07:53;;;;;;;;;;;;;;;;;;5067345;28;20015;-68
2023/11/01 10:10:20;;;;;;;;;;;;;;;;;;5062675;28;19932;-70
2023/11/01 10:12:47;;;;;;;;;;;;;;;;;;5064942;28;19978;-68
2023/11/01 10:15:14;;;;;;;;;;;;;;;;;;5066661;28;20004;-69
2023/11/01 10:17:41;;;;;;;;;;;;;;;;;;5063416;28;20012;-69
2023/11/01 10:20:08;;;;;;;;;;;;;;;;;;5066605;28;20306;-69
2023/11/01 10:22:35;;;;;;;;;;;;;;;;;;5064048;28;19924;-69
2023/11/01 10:25:02;;;;;;;;;;;;;;;;;;5063137;28;19960;-69
2023/11/01 10:27:30;;;;;;;;;;;;;;;;;;5069931;28;19947;-70
2023/11/01 10:29:57;;;;;;;;;;;;;;;;;;5070279;28;19925;-69
2023/11/01 10:32:24;;;;;;;;;;;;;;;;;;5068913;28;20015;-69
2023/11/01 10:34:51;;;;;;;;;;;;;;;;;;5072849;28;20509;-69
2023/11/01 10:37:18;;;;;;;;;;;;;;;;;;5068304;28;19925;-70
2023/11/01 10:39:46;;;;;;;;;;;;;;;;;;5072009;28;20268;-69
2023/11/01 10:42:13;;;;;;;;;;;;;;;;;;5069137;28;20020;-69
2023/11/01 10:44:40;;;;;;;;;;;;;;;;;;5069229;28;20371;-70
2023/11/01 10:47:07;;;;;;;;;;;;;;;;;;5072117;28;20015;-70
2023/11/01 10:49:34;;;;;;;;;;;;;;;;;;5068786;28;19925;-70
2023/11/01 10:52:01;;;;;;;;;;;;;;;;;;5073634;28;20363;-70
2023/11/01 10:54:28;;;;;;;;;;;;;;;;;;5065789;28;19928;-69
2023/11/01 10:56:56;;;;;;;;;;;;;;;;;;5071739;28;19946;-70
2023/11/01 10:59:23;;;;;;;;;;;;;;;;;;5072897;28;20023;-69
2023/11/01 11:01:50;;;;;;;;;;;;;;;;;;5067136;28;20342;-70
2023/11/01 11:04:21;;;;;;;;;;;;;;;;;;5068898;28;20008;-69
2023/11/01 11:06:48;;;;;;;;;;;;;;;;;;5058760;28;19935;-69
2023/11/01 11:09:15;;;;;;;;;;;;;;;;;;5066359;28;19928;-70
2023/11/01 11:11:42;;;;;;;;;;;;;;;;;;5065919;28;19925;-69
2023/11/01 11:14:09;;;;;;;;;;;;;;;;;;5060864;28;19931;-71
2023/11/01 11:16:36;;;;;;;;;;;;;;;;;;5072967;28;20380;-72
2023/11/01 11:19:03;;;;;;;;;;;;;;;;;;5071795;28;20250;-70
2023/11/01 11:21:35;;;;;;;;;;;;;;;;;;5070348;28;19978;-72
2023/11/01 11:24:03;;;;;;;;;;;;;;;;;;5074859;28;19982;-71
2023/11/01 11:26:30;;;;;;;;;;;;;;;;;;5072917;28;20170;-72
2023/11/01 11:28:57;;;;;;;;;;;;;;;;;;5072992;28;19931;-72
2023/11/01 11:31:25;;;;;;;;;;;;;;;;;;5074590;28;20338;-71
2023/11/01 11:33:52;;;;;;;;;;;;;;;;;;5071778;28;19934;-72
2023/11/01 11:36:19;;;;;;;;;;;;;;;;;;5075448;28;19978;-72
2023/11/01 11:38:45;;;;;;;;;;;;;;;;;;5072819;28;20020;-71
2023/11/01 11:41:12;;;;;;;;;;;;;;;;;;5072881;28;20015;-70
2023/11/01 11:43:39;;;;;;;;;;;;;;;;;;5073263;28;19960;-71
2023/11/01 11:46:06;;;;;;;;;;;;;;;;;;5067858;28;20046;-71
2023/11/01 11:48:33;;;;;;;;;;;;;;;;;;5067870;28;19978;-73
2023/11/01 11:51:00;;;;;;;;;;;;;;;;;;5068126;28;19971;-72
2023/11/01 11:53:27;;;;;;;;;;;;;;;;;;5071411;28;19978;-72
2023/11/01 11:55:54;;;;;;;;;;;;;;;;;;5068800;28;20035;-72
2023/11/01 11:58:21;;;;;;;;;;;;;;;;;;5068145;28;19936;-71
2023/11/01 12:00:48;;;;;;;;;;;;;;;;;;5070922;28;19932;-68
2023/11/01 12:03:15;;;;;;;;;;;;;;;;;;5062334;28;19967;-69
2023/11/01 12:05:42;;;;;;;;;;;;;;;;;;5071465;28;19924;-70
2023/11/01 12:08:09;;;;;;;;;;;;;;;;;;5060484;28;19968;-69
2023/11/01 12:10:36;;;;;;;;;;;;;;;;;;5071094;28;19924;-71
2023/11/01 12:13:03;;;;;;;;;;;;;;;;;;5072030;28;19971;-70
2023/11/01 12:15:30;;;;;;;;;;;;;;;;;;5071679;28;19928;-70
2023/11/01 12:17:57;;;;;;;;;;;;;;;;;;5072578;28;20466;-70
2023/11/01 12:20:24;;;;;;;;;;;;;;;;;;5071573;28;19986;-70
2023/11/01 12:22:51;;;;;;;;;;;;;;;;;;5073450;28;20375;-71
2023/11/01 12:25:18;;;;;;;;;;;;;;;;;;5067948;28;19963;-70
2023/11/01 12:27:45;;;;;;;;;;;;;;;;;;5065225;28;19924;-70
2023/11/01 12:30:12;;;;;;;;;;;;;;;;;;5067000;28;20358;-70
2023/11/01 12:32:42;;;;;;;;;;;;;;;;;;5072438;28;20019;-72
2023/11/01 12:35:11;;;;;;;;;;;;;;;;;;5072645;28;19924;-70
2023/11/01 12:37:38;;;;;;;;;;;;;;;;;;5069073;28;20383;-70
2023/11/01 12:40:09;;;;;;;;;;;;;;;;;;5072609;28;19978;-70
2023/11/01 12:42:37;;;;;;;;;;;;;;;;;;5071353;28;19993;-70
2023/11/01 12:45:04;;;;;;;;;;;;;;;;;;5069729;28;19931;-70
2023/11/01 12:47:31;;;;;;;;;;;;;;;;;;5071807;28;20035;-69
2023/11/01 12:49:58;;;;;;;;;;;;;;;;;;5068670;28;20643;-70
2023/11/01 12:52:25;;;;;;;;;;;;;;;;;;5068710;28;20405;-69
2023/11/01 12:54:52;;;;;;;;;;;;;;;;;;5072456;28;19947;-71
2023/11/01 12:57:19;;;;;;;;;;;;;;;;;;5072749;28;20026;-70
2023/11/01 12:59:46;;;;;;;;;;;;;;;;;;5069472;28;20007;-71
2023/11/01 13:02:13;;;;;;;;;;;;;;;;;;5072218;28;20443;-70
2023/11/01 13:04:42;;;;;;;;;;;;;;;;;;5066640;28;19964;-70
2023/11/01 13:07:09;;;;;;;;;;;;;;;;;;5067080;28;19929;-69
2023/11/01 13:09:36;;;;;;;;;;;;;;;;;;5058833;28;19925;-69
2023/11/01 13:12:03;;;;;;;;;;;;;;;;;;5059076;28;20047;-70
2023/11/01 13:14:30;;;;;;;;;;;;;;;;;;5062706;28;20378;-70
2023/11/01 13:16:57;;;;;;;;;;;;;;;;;;5067500;28;19956;-70
2023/11/01 13:19:24;;;;;;;;;;;;;;;;;;5063028;28;19978;-70
2023/11/01 13:21:51;;;;;;;;;;;;;;;;;;5060283;28;19925;-70
2023/11/01 13:24:19;;;;;;;;;;;;;;;;;;5063139;28;19974;-70
2023/11/01 13:26:46;;;;;;;;;;;;;;;;;;5065897;28;19931;-69
2023/11/01 13:29:13;;;;;;;;;;;;;;;;;;5060885;28;19924;-69
2023/11/01 13:31:40;;;;;;;;;;;;;;;;;;5066201;28;19924;-68
2023/11/01 13:34:06;;;;;;;;;;;;;;;;;;5065031;28;20362;-69
2023/11/01 13:36:33;;;;;;;;;;;;;;;;;;5063997;28;19979;-68
2023/11/01 13:39:00;;;;;;;;;;;;;;;;;;5068532;28;19925;-66
2023/11/01 13:41:27;;;;;;;;;;;;;;;;;;5066687;28;20399;-66
2023/11/01 13:43:54;;;;;;;;;;;;;;;;;;5062026;28;19947;-66
2023/11/01 13:46:21;;;;;;;;;;;;;;;;;;5064278;28;19955;-66
2023/11/01 13:48:48;;;;;;;;;;;;;;;;;;5069530;28;20392;-66
2023/11/01 13:51:15;;;;;;;;;;;;;;;;;;5068491;28;19925;-65
2023/11/01 13:53:45;;;;;;;;;;;;;;;;;;5065867;28;19946;-65
2023/11/01 13:56:11;;;;;;;;;;;;;;;;;;5069286;28;19931;-65
2023/11/01 13:58:40;;;;;;;;;;;;;;;;;;5069630;28;20022;-65
2023/11/01 14:01:07;;;;;;;;;;;;;;;;;;5067515;28;20345;-64
2023/11/01 14:03:36;;;;;;;;;;;;;;;;;;5065047;28;19964;-65
2023/11/01 14:06:03;;;;;;;;;;;;;;;;;;5069984;28;19924;-64
2023/11/01 14:08:30;;;;;;;;;;;;;;;;;;5065056;28;20009;-64
2023/11/01 14:10:57;;;;;;;;;;;;;;;;;;5065757;28;19924;-63
2023/11/01 14:13:24;;;;;;;;;;;;;;;;;;5069624;28;19928;-64
2023/11/01 14:15:51;;;;;;;;;;;;;;;;;;5060042;28;20459;-65
2023/11/01 14:18:21;;;;;;;;;;;;;;;;;;5060074;28;19964;-65
2023/11/01 14:20:50;;;;;;;;;;;;;;;;;;5064887;28;19931;-64
2023/11/01 14:23:17;;;;;;;;;;;;;;;;;;5061196;28;19983;-64
2023/11/01 14:25:44;;;;;;;;;;;;;;;;;;5063809;28;19934;-66
2023/11/01 14:28:11;;;;;;;;;;;;;;;;;;5064009;28;19967;-68
2023/11/01 14:30:39;;;;;;;;;;;;;;;;;;5069335;28;19986;-65
2023/11/01 14:33:06;;;;;;;;;;;;;;;;;;5060521;28;19924;-65
2023/11/01 14:35:33;;;;;;;;;;;;;;;;;;5070196;28;20011;-64
2023/11/01 14:38:00;;;;;;;;;;;;;;;;;;5063262;28;19932;-64
2023/11/01 14:40:30;;;;;;;;;;;;;;;;;;5054475;28;19924;-64
2023/11/01 14:42:57;;;;;;;;;;;;;;;;;;5069099;28;19952;-65
2023/11/01 14:45:24;;;;;;;;;;;;;;;;;;5071333;28;19929;-65
2023/11/01 14:47:51;;;;;;;;;;;;;;;;;;5067496;28;19986;-65
2023/11/01 14:50:18;;;;;;;;;;;;;;;;;;5057293;28;19925;-65
2023/11/01 14:52:45;;;;;;;;;;;;;;;;;;5070602;28;19924;-66
2023/11/01 14:55:12;;;;;;;;;;;;;;;;;;5071191;28;20399;-65
2023/11/01 14:57:39;;;;;;;;;;;;;;;;;;5062822;28;19932;-65
2023/11/01 15:00:07;;;;;;;;;;;;;;;;;;5067424;28;20399;-65
2023/11/01 15:02:34;;;;;;;;;;;;;;;;;;5064714;28;19956;-65
2023/11/01 15:05:01;;;;;;;;;;;;;;;;;;5069585;28;19967;-65
2023/11/01 15:07:28;;;;;;;;;;;;;;;;;;5060874;28;19929;-66
2023/11/01 15:09:55;;;;;;;;;;;;;;;;;;5064547;28;19931;-64
2023/11/01 15:12:23;;;;;;;;;;;;;;;;;;5065455;28;20024;-65
2023/11/01 15:14:49;;;;;;;;;;;;;;;;;;5073350;28;19925;-65
2023/11/01 15:17:16;;;;;;;;;;;;;;;;;;5061919;28;19932;-65
2023/11/01 15:19:44;;;;;;;;;;;;;;;;;;5063369;28;20430;-65
2023/11/01 15:22:11;;;;;;;;;;;;;;;;;;5066767;28;19931;-65
2023/11/01 15:24:38;;;;;;;;;;;;;;;;;;5071760;28;19932;-65
2023/11/01 15:27:05;;;;;;;;;;;;;;;;;;5068802;28;20302;-65
2023/11/01 15:29:32;;;;;;;;;;;;;;;;;;5070877;28;19975;-65
2023/11/01 15:31:59;;;;;;;;;;;;;;;;;;5070039;28;19924;-65
2023/11/01 15:34:29;;;;;;;;;;;;;;;;;;5071919;28;19932;-65
2023/11/01 15:36:56;;;;;;;;;;;;;;;;;;5072935;28;19924;-65
2023/11/01 15:39:23;;;;;;;;;;;;;;;;;;5068861;28;19924;-65
2023/11/01 15:41:50;;;;;;;;;;;;;;;;;;5070040;28;19964;-64
2023/11/01 15:44:18;;;;;;;;;;;;;;;;;;5071871;28;20357;-64
2023/11/01 15:46:45;;;;;;;;;;;;;;;;;;5071934;28;19938;-64
2023/11/01 15:49:12;;;;;;;;;;;;;;;;;;5070917;28;19925;-64
2023/11/01 15:51:39;;;;;;;;;;;;;;;;;;5069718;28;19924;-63
2023/11/01 15:54:06;;;;;;;;;;;;;;;;;;5069346;28;19931;-64
2023/11/01 15:56:33;;;;;;;;;;;;;;;;;;5071231;28;19983;-65
2023/11/01 15:59:00;;;;;;;;;;;;;;;;;;5072354;28;19978;-68
2023/11/01 16:01:27;;;;;;;;;;;;;;;;;;5069407;28;19924;-70
2023/11/01 16:03:54;;;;;;;;;;;;;;;;;;5069933;28;19924;-74
2023/11/01 16:06:23;;;;;;;;;;;;;;;;;;5071941;28;20369;-73
2023/11/01 16:08:50;;;;;;;;;;;;;;;;;;5068884;28;19968;-73
2023/11/01 16:11:18;;;;;;;;;;;;;;;;;;5069276;28;19931;-73
2023/11/01 16:13:44;;;;;;;;;;;;;;;;;;5069142;28;19932;-75
2023/11/01 16:16:12;;;;;;;;;;;;;;;;;;5066186;28;19994;-74
2023/11/01 16:18:39;;;;;;;;;;;;;;;;;;5064381;28;19924;-75
2023/11/01 16:21:06;;;;;;;;;;;;;;;;;;5063890;28;19982;-75
2023/11/01 16:23:33;;;;;;;;;;;;;;;;;;5061398;28;20322;-74
2023/11/01 16:26:00;;;;;;;;;;;;;;;;;;5063213;28;20011;-75
2023/11/01 16:28:27;;;;;;;;;;;;;;;;;;5069528;28;20016;-74
2023/11/01 16:30:57;;;;;;;;;;;;;;;;;;5067502;28;20019;-73
2023/11/01 16:33:24;;;;;;;;;;;;;;;;;;5070404;28;19929;-75
2023/11/01 16:35:51;;;;;;;;;;;;;;;;;;5062929;28;19986;-75
2023/11/01 16:38:18;;;;;;;;;;;;;;;;;;5068462;28;20014;-75
2023/11/01 16:40:45;;;;;;;;;;;;;;;;;;5061856;28;20341;-74
2023/11/01 16:43:12;;;;;;;;;;;;;;;;;;5055997;28;19929;-74
2023/11/01 16:45:39;;;;;;;;;;;;;;;;;;5064822;28;20010;-75